createdAt,value
2022-08-16T00:01:41.782Z,18.70
2022-08-16T00:04:18.582Z,18.60
2022-08-16T00:06:57.606Z,18.60
2022-08-16T00:09:36.028Z,18.60
2022-08-16T00:12:18.062Z,18.50
2022-08-16T00:14:56.409Z,18.60
2022-08-16T00:17:56.361Z,16.70
2022-08-16T00:20:31.066Z,18.80
2022-08-16T00:23:09.319Z,19.10
2022-08-16T00:25:49.646Z,19.20
2022-08-16T00:28:45.425Z,19.20
2022-08-16T00:31:24.199Z,19.30
2022-08-16T00:34:01.295Z,19.30
2022-08-16T00:36:47.347Z,19.50
2022-08-16T00:39:24.115Z,19.60
2022-08-16T00:42:03.460Z,19.70
2022-08-16T00:44:42.000Z,19.90
2022-08-16T00:47:24.717Z,20.00
2022-08-16T00:55:17.893Z,20.20
2022-08-16T01:00:38.911Z,20.20
2022-08-16T01:03:18.304Z,20.10
2022-08-16T01:06:32.690Z,20.00
2022-08-16T01:09:07.738Z,20.00
2022-08-16T01:11:53.815Z,20.00
2022-08-16T01:14:39.683Z,20.10
2022-08-16T01:20:03.883Z,20.00
2022-08-16T01:23:09.777Z,19.90
2022-08-16T01:25:59.771Z,19.80
2022-08-16T01:28:49.715Z,19.90
2022-08-16T01:31:31.113Z,19.80
2022-08-16T01:34:08.078Z,19.90
2022-08-16T01:37:07.236Z,19.90
2022-08-16T01:39:47.955Z,19.90
2022-08-16T01:42:30.013Z,19.90
2022-08-16T01:45:07.521Z,20.00
2022-08-16T01:47:49.270Z,20.10
2022-08-16T01:50:42.656Z,20.30
2022-08-16T01:53:28.391Z,20.40
2022-08-16T01:56:28.568Z,20.40
2022-08-16T01:59:15.695Z,20.40
2022-08-16T02:01:59.963Z,20.60
2022-08-16T02:04:48.178Z,20.60
2022-08-16T02:07:31.586Z,20.70
2022-08-16T02:10:08.792Z,20.60
2022-08-16T02:12:59.860Z,20.60
2022-08-16T02:15:44.014Z,20.70
2022-08-16T02:18:20.849Z,20.70
2022-08-16T02:20:59.652Z,20.80
2022-08-16T02:23:39.854Z,20.90
2022-08-16T02:26:17.063Z,20.90
2022-08-16T02:28:55.796Z,20.90
2022-08-16T02:32:03.616Z,21.00
2022-08-16T02:34:40.390Z,21.00
2022-08-16T02:37:20.984Z,20.80
2022-08-16T02:40:00.944Z,20.80
2022-08-16T02:42:40.482Z,20.70
2022-08-16T02:45:17.942Z,20.70
2022-08-16T02:48:01.855Z,20.70
2022-08-16T02:51:06.056Z,20.60
2022-08-16T02:53:51.257Z,20.60
2022-08-16T02:56:33.269Z,20.50
2022-08-16T02:59:11.769Z,20.50
2022-08-16T03:01:51.928Z,20.50
2022-08-16T03:04:50.657Z,20.60
2022-08-16T03:07:30.377Z,20.70
2022-08-16T03:10:16.204Z,20.80
2022-08-16T03:12:57.042Z,20.80
2022-08-16T03:15:36.160Z,20.80
2022-08-16T03:18:18.665Z,20.80
2022-08-16T03:21:14.352Z,20.90
2022-08-16T03:23:56.965Z,21.10
2022-08-16T03:26:37.910Z,21.00
2022-08-16T03:29:15.623Z,21.20
2022-08-16T03:31:56.268Z,21.30
2022-08-16T03:34:37.286Z,21.40
2022-08-16T03:37:18.129Z,21.30
2022-08-16T03:40:02.690Z,21.10
2022-08-16T03:43:19.091Z,20.90
2022-08-16T03:45:39.962Z,20.80
2022-08-16T03:48:18.267Z,20.60
2022-08-16T03:51:00.023Z,20.50
2022-08-16T03:53:42.888Z,20.50
2022-08-16T03:58:58.897Z,20.50
2022-08-16T04:01:43.390Z,20.60
2022-08-16T04:04:30.974Z,20.50
2022-08-16T04:07:12.520Z,20.50
2022-08-16T04:09:55.045Z,20.60
2022-08-16T04:12:53.133Z,20.60
2022-08-16T04:15:31.946Z,20.60
2022-08-16T04:18:38.601Z,20.60
2022-08-16T04:21:29.289Z,20.50
2022-08-16T04:24:09.150Z,20.50
2022-08-16T04:26:48.793Z,20.40
2022-08-16T04:29:26.740Z,20.40
2022-08-16T04:37:47.056Z,20.90
2022-08-16T04:40:40.757Z,20.80
2022-08-16T04:43:20.612Z,20.80
2022-08-16T04:46:00.901Z,20.80
2022-08-16T04:48:45.992Z,20.70
2022-08-16T04:51:23.383Z,20.40
2022-08-16T04:54:02.620Z,20.30
2022-08-16T04:56:42.945Z,20.30
2022-08-16T04:59:28.004Z,20.20
2022-08-16T05:02:06.332Z,20.00
2022-08-16T05:05:03.495Z,20.10
2022-08-16T05:07:58.430Z,20.10
2022-08-16T05:10:38.801Z,20.10
2022-08-16T05:13:16.135Z,20.10
2022-08-16T05:15:54.568Z,20.10
2022-08-16T05:18:35.515Z,20.00
2022-08-16T05:21:13.162Z,19.80
2022-08-16T05:23:58.712Z,19.80
2022-08-16T05:26:43.023Z,19.70
2022-08-16T05:29:57.808Z,19.70
2022-08-16T05:32:32.007Z,19.60
2022-08-16T05:35:15.584Z,19.50
2022-08-16T05:38:33.204Z,19.50
2022-08-16T05:41:14.541Z,19.50
2022-08-16T05:43:59.251Z,19.40
2022-08-16T05:46:47.055Z,19.40
2022-08-16T05:49:39.971Z,19.30
2022-08-16T05:52:20.975Z,19.30
2022-08-16T05:55:00.982Z,19.20
2022-08-16T05:57:52.556Z,19.10
2022-08-16T06:00:30.020Z,19.20
2022-08-16T06:03:07.256Z,19.20
2022-08-16T06:06:08.490Z,19.20
2022-08-16T06:08:47.308Z,19.10
2022-08-16T06:11:25.561Z,19.10
2022-08-16T06:14:07.228Z,19.10
2022-08-16T06:16:50.529Z,19.10
2022-08-16T06:19:29.674Z,19.10
2022-08-16T06:22:39.415Z,19.00
2022-08-16T06:25:19.575Z,19.00
2022-08-16T06:28:17.242Z,19.00
2022-08-16T06:36:32.241Z,18.80
2022-08-16T06:39:21.696Z,18.80
2022-08-16T06:42:07.116Z,18.70
2022-08-16T06:45:01.799Z,18.60
2022-08-16T06:47:54.354Z,18.60
2022-08-16T06:50:37.021Z,18.50
2022-08-16T06:53:22.179Z,18.50
2022-08-16T06:56:23.040Z,18.50
2022-08-16T06:59:11.453Z,18.40
2022-08-16T07:01:58.505Z,18.30
2022-08-16T07:04:37.279Z,18.30
2022-08-16T07:07:25.849Z,18.20
2022-08-16T07:10:12.932Z,18.20
2022-08-16T07:13:04.388Z,18.20
2022-08-16T07:15:51.617Z,18.20
2022-08-16T07:18:34.844Z,18.10
2022-08-16T07:21:13.365Z,18.10
2022-08-16T07:23:51.311Z,18.10
2022-08-16T07:26:35.327Z,18.00
2022-08-16T07:29:14.540Z,18.00
2022-08-16T07:31:53.703Z,18.00
2022-08-16T07:34:34.981Z,18.00
2022-08-16T07:37:15.712Z,17.90
2022-08-16T07:40:11.342Z,17.90
2022-08-16T07:42:53.161Z,17.80
2022-08-16T07:45:33.847Z,17.80
2022-08-16T07:48:12.847Z,17.80
2022-08-16T07:50:59.610Z,17.70
2022-08-16T07:53:43.434Z,17.60
2022-08-16T07:56:22.690Z,17.60
2022-08-16T07:59:13.404Z,17.60
2022-08-16T08:01:53.801Z,17.50
2022-08-16T08:04:40.394Z,17.50
2022-08-16T08:07:17.207Z,17.50
2022-08-16T08:09:53.241Z,17.50
2022-08-16T08:12:36.183Z,17.50
2022-08-16T08:15:25.241Z,17.40
2022-08-16T08:18:29.328Z,17.40
2022-08-16T08:21:01.196Z,17.40
2022-08-16T08:23:42.580Z,17.40
2022-08-16T08:26:20.767Z,17.40
2022-08-16T08:29:00.964Z,17.30
2022-08-16T08:31:41.079Z,17.30
2022-08-16T08:34:20.733Z,17.30
2022-08-16T08:36:58.537Z,17.30
2022-08-16T08:39:54.581Z,17.30
2022-08-16T08:42:32.983Z,17.30
2022-08-16T08:45:36.097Z,17.20
2022-08-16T08:48:33.034Z,17.20
2022-08-16T08:51:20.526Z,17.20
2022-08-16T08:54:07.009Z,17.20
2022-08-16T08:56:49.638Z,17.60
2022-08-16T08:59:40.812Z,17.20
2022-08-16T09:02:23.891Z,17.30
2022-08-16T09:05:15.602Z,17.00
2022-08-16T09:08:09.481Z,17.00
2022-08-16T09:11:01.977Z,17.00
2022-08-16T09:13:47.250Z,17.00
2022-08-16T09:17:01.213Z,17.00
2022-08-16T09:19:32.825Z,17.00
2022-08-16T09:22:19.730Z,16.90
2022-08-16T09:25:12.469Z,16.90
2022-08-16T09:27:57.733Z,16.90
2022-08-16T09:30:44.250Z,16.80
2022-08-16T09:33:23.931Z,16.80
2022-08-16T09:36:02.893Z,16.80
2022-08-16T09:38:41.099Z,16.80
2022-08-16T09:41:21.347Z,16.80
2022-08-16T09:44:02.394Z,16.80
2022-08-16T09:46:57.872Z,16.80
2022-08-16T09:49:37.509Z,16.70
2022-08-16T09:52:22.381Z,16.70
2022-08-16T09:54:58.359Z,16.70
2022-08-16T09:57:39.591Z,16.60
2022-08-16T10:00:44.039Z,16.60
2022-08-16T10:03:15.835Z,16.60
2022-08-16T10:05:54.406Z,16.60
2022-08-16T10:08:33.220Z,16.60
2022-08-16T10:11:50.424Z,16.50
2022-08-16T10:14:32.964Z,16.50
2022-08-16T10:17:12.560Z,16.50
2022-08-16T10:19:53.268Z,16.50
2022-08-16T10:22:32.809Z,16.50
2022-08-16T10:25:10.258Z,16.50
2022-08-16T10:28:27.812Z,16.50
2022-08-16T10:31:04.813Z,16.40
2022-08-16T10:33:42.108Z,16.40
2022-08-16T10:36:37.920Z,16.30
2022-08-16T10:39:16.380Z,16.20
2022-08-16T10:41:54.757Z,16.20
2022-08-16T10:44:33.664Z,16.20
2022-08-16T10:47:15.336Z,16.20
2022-08-16T10:49:54.080Z,16.20
2022-08-16T10:58:11.434Z,16.10
2022-08-16T11:00:48.869Z,16.00
2022-08-16T11:03:45.677Z,16.00
2022-08-16T11:06:26.998Z,16.00
2022-08-16T11:12:13.758Z,15.90
2022-08-16T11:18:48.671Z,15.80
2022-08-16T11:20:50.558Z,15.80
2022-08-16T11:23:30.401Z,15.80
2022-08-16T11:26:23.631Z,15.80
2022-08-16T11:29:17.537Z,15.80
2022-08-16T11:31:56.326Z,15.70
2022-08-16T11:35:03.841Z,15.70
2022-08-16T11:38:04.545Z,15.70
2022-08-16T11:40:32.869Z,15.60
2022-08-16T11:43:10.998Z,15.60
2022-08-16T11:45:53.768Z,15.60
2022-08-16T11:48:34.989Z,15.60
2022-08-16T11:51:11.620Z,15.50
2022-08-16T11:53:54.717Z,15.50
2022-08-16T11:56:51.896Z,15.40
2022-08-16T11:59:29.432Z,15.40
2022-08-16T12:02:30.971Z,15.50
2022-08-16T12:05:05.673Z,15.40
2022-08-16T12:07:42.447Z,15.40
2022-08-16T12:10:23.897Z,15.40
2022-08-16T12:13:04.391Z,15.40
2022-08-16T12:15:42.137Z,15.30
2022-08-16T12:18:20.748Z,15.30
2022-08-16T12:20:58.628Z,15.30
2022-08-16T12:23:36.375Z,15.30
2022-08-16T12:26:13.743Z,15.20
2022-08-16T12:28:53.965Z,15.20
2022-08-16T12:31:31.227Z,15.10
2022-08-16T12:34:09.706Z,15.10
2022-08-16T12:36:56.060Z,15.10
2022-08-16T12:39:33.160Z,15.10
2022-08-16T12:42:12.904Z,15.10
2022-08-16T12:44:54.682Z,15.10
2022-08-16T12:47:46.022Z,15.10
2022-08-16T12:50:24.044Z,15.00
2022-08-16T12:53:10.946Z,15.00
2022-08-16T12:55:48.486Z,15.00
2022-08-16T12:58:50.041Z,15.00
2022-08-16T13:01:28.384Z,15.00
2022-08-16T13:04:20.168Z,14.90
2022-08-16T13:06:57.713Z,14.90
2022-08-16T13:09:42.177Z,14.90
2022-08-16T13:12:22.436Z,14.80
2022-08-16T13:15:03.342Z,14.80
2022-08-16T13:17:43.308Z,14.80
2022-08-16T13:20:21.762Z,14.70
2022-08-16T13:23:07.564Z,14.70
2022-08-16T13:25:49.674Z,14.70
2022-08-16T13:28:27.411Z,14.70
2022-08-16T13:31:08.120Z,14.60
2022-08-16T13:33:46.217Z,14.60
2022-08-16T13:36:38.809Z,14.60
2022-08-16T13:39:19.488Z,14.60
2022-08-16T13:41:58.130Z,14.60
2022-08-16T13:44:56.375Z,14.60
2022-08-16T13:47:34.218Z,14.60
2022-08-16T13:50:11.836Z,14.60
2022-08-16T13:52:51.312Z,14.50
2022-08-16T13:55:32.389Z,14.60
2022-08-16T13:58:36.422Z,14.50
2022-08-16T14:01:10.040Z,14.50
2022-08-16T14:03:50.074Z,14.40
2022-08-16T14:06:32.910Z,14.40
2022-08-16T14:09:08.530Z,14.40
2022-08-16T14:11:45.893Z,14.40
2022-08-16T14:14:28.804Z,14.30
2022-08-16T14:17:09.895Z,14.30
2022-08-16T14:19:49.171Z,14.30
2022-08-16T14:22:30.671Z,14.30
2022-08-16T14:25:16.286Z,14.30
2022-08-16T14:27:55.777Z,14.30
2022-08-16T14:30:34.451Z,14.30
2022-08-16T14:33:11.149Z,14.40
2022-08-16T14:35:50.492Z,14.30
2022-08-16T14:38:37.445Z,14.20
2022-08-16T14:41:15.839Z,14.20
2022-08-16T14:43:54.516Z,14.20
2022-08-16T14:46:30.524Z,14.20
2022-08-16T14:49:09.303Z,14.20
2022-08-16T14:51:50.371Z,14.20
2022-08-16T14:54:30.967Z,14.20
2022-08-16T14:57:10.158Z,14.20
2022-08-16T14:59:47.145Z,14.20
2022-08-16T15:02:33.873Z,14.20
2022-08-16T15:05:13.497Z,14.20
2022-08-16T15:07:54.415Z,14.20
2022-08-16T15:10:32.295Z,14.20
2022-08-16T15:13:12.444Z,14.20
2022-08-16T15:15:56.365Z,14.20
2022-08-16T15:18:35.938Z,14.10
2022-08-16T15:21:14.827Z,14.10
2022-08-16T15:23:54.159Z,14.10
2022-08-16T15:26:39.125Z,14.00
2022-08-16T15:29:22.406Z,14.00
2022-08-16T15:32:00.914Z,14.00
2022-08-16T15:34:46.396Z,14.00
2022-08-16T15:37:42.538Z,14.00
2022-08-16T15:40:32.002Z,14.10
2022-08-16T15:43:14.540Z,14.00
2022-08-16T15:46:10.305Z,14.00
2022-08-16T15:48:46.223Z,14.00
2022-08-16T15:51:24.440Z,14.00
2022-08-16T15:54:29.179Z,14.00
2022-08-16T15:57:09.639Z,14.00
2022-08-16T15:59:56.335Z,14.00
2022-08-16T16:02:49.522Z,13.90
2022-08-16T16:05:25.941Z,13.90
2022-08-16T16:08:10.937Z,13.90
2022-08-16T16:10:54.442Z,13.80
2022-08-16T16:13:34.116Z,13.80
2022-08-16T16:16:19.414Z,13.80
2022-08-16T16:18:56.245Z,13.80
2022-08-16T16:21:34.503Z,13.80
2022-08-16T16:24:23.811Z,13.80
2022-08-16T16:27:01.437Z,13.70
2022-08-16T16:29:40.300Z,13.70
2022-08-16T16:32:18.471Z,13.70
2022-08-16T16:35:13.480Z,13.70
2022-08-16T16:37:49.495Z,13.70
2022-08-16T16:40:33.102Z,13.70
2022-08-16T16:43:16.322Z,13.70
2022-08-16T16:45:55.231Z,13.70
2022-08-16T16:48:34.749Z,13.70
2022-08-16T16:51:15.871Z,13.70
2022-08-16T16:53:57.901Z,13.70
2022-08-16T16:56:37.753Z,13.60
2022-08-16T16:59:15.850Z,13.60
2022-08-16T17:02:38.479Z,13.60
2022-08-16T17:04:53.986Z,13.60
2022-08-16T17:07:32.809Z,13.60
2022-08-16T17:10:11.263Z,13.60
2022-08-16T17:12:48.248Z,13.60
2022-08-16T17:15:36.527Z,13.60
2022-08-16T17:19:15.195Z,13.50
2022-08-16T17:21:16.641Z,13.40
2022-08-16T17:23:58.463Z,13.40
2022-08-16T17:26:40.366Z,13.40
2022-08-16T17:29:17.536Z,13.40
2022-08-16T17:32:32.510Z,13.40
2022-08-16T17:35:00.597Z,13.40
2022-08-16T17:37:50.629Z,13.40
2022-08-16T17:40:46.058Z,13.30
2022-08-16T17:43:24.828Z,13.30
2022-08-16T17:46:04.019Z,13.30
2022-08-16T17:48:43.320Z,13.40
2022-08-16T17:51:21.984Z,13.40
2022-08-16T17:54:00.382Z,13.40
2022-08-16T17:56:37.812Z,13.40
2022-08-16T17:59:16.407Z,13.40
2022-08-16T18:01:54.938Z,13.30
2022-08-16T18:04:49.070Z,13.30
2022-08-16T18:07:35.265Z,13.30
2022-08-16T18:10:14.454Z,13.30
2022-08-16T18:13:12.044Z,13.20
2022-08-16T18:15:48.800Z,13.30
2022-08-16T18:18:28.136Z,13.30
2022-08-16T18:21:21.409Z,13.30
2022-08-16T18:23:59.722Z,13.20
2022-08-16T18:26:37.848Z,13.20
2022-08-16T18:29:14.823Z,13.20
2022-08-16T18:31:52.574Z,13.20
2022-08-16T18:34:28.573Z,13.20
2022-08-16T18:37:05.250Z,13.20
2022-08-16T18:39:48.973Z,13.20
2022-08-16T18:42:27.082Z,13.20
2022-08-16T18:45:03.081Z,13.20
2022-08-16T18:47:39.811Z,13.20
2022-08-16T18:50:16.189Z,13.20
2022-08-16T18:52:58.375Z,13.30
2022-08-16T18:55:45.405Z,13.20
2022-08-16T18:58:22.073Z,13.20
2022-08-16T19:00:59.669Z,13.20
2022-08-16T19:03:40.161Z,13.20
2022-08-16T19:06:21.264Z,13.20
2022-08-16T19:08:57.562Z,13.20
2022-08-16T19:11:36.682Z,13.20
2022-08-16T19:14:14.265Z,13.10
2022-08-16T19:16:50.952Z,13.10
2022-08-16T19:19:32.655Z,13.10
2022-08-16T19:22:14.673Z,13.10
2022-08-16T19:24:50.770Z,13.10
2022-08-16T19:27:32.566Z,13.10
2022-08-16T19:30:11.132Z,13.20
2022-08-16T19:32:49.909Z,13.20
2022-08-16T19:35:26.075Z,13.10
2022-08-16T19:38:03.215Z,13.10
2022-08-16T19:40:39.151Z,13.10
2022-08-16T19:43:19.735Z,13.10
2022-08-16T19:45:58.690Z,13.00
2022-08-16T19:48:35.433Z,13.00
2022-08-16T19:51:11.623Z,13.00
2022-08-16T19:53:49.594Z,13.00
2022-08-16T19:56:27.277Z,13.00
2022-08-16T19:59:22.141Z,13.00
2022-08-16T20:01:59.953Z,13.00
2022-08-16T20:04:38.170Z,13.00
2022-08-16T20:07:15.478Z,12.90
2022-08-16T20:09:57.606Z,12.90
2022-08-16T20:12:34.732Z,12.90
2022-08-16T20:15:17.864Z,12.90
2022-08-16T20:17:55.540Z,12.90
2022-08-16T20:20:37.389Z,12.90
2022-08-16T20:23:24.797Z,13.00
2022-08-16T20:26:02.826Z,13.00
2022-08-16T20:28:53.743Z,12.90
2022-08-16T20:31:34.351Z,12.90
2022-08-16T20:34:11.311Z,12.90
2022-08-16T20:36:47.857Z,12.90
2022-08-16T20:39:25.722Z,12.90
2022-08-16T20:42:02.062Z,12.90
2022-08-16T20:44:39.621Z,12.80
2022-08-16T20:47:17.060Z,12.80
2022-08-16T20:49:55.317Z,12.80
2022-08-16T20:52:32.326Z,12.90
2022-08-16T20:55:12.031Z,12.90
2022-08-16T20:57:49.492Z,13.30
2022-08-16T21:00:27.908Z,14.10
2022-08-16T21:03:11.085Z,14.70
2022-08-16T21:05:48.511Z,14.90
2022-08-16T21:08:49.998Z,14.50
2022-08-16T21:11:23.760Z,14.20
2022-08-16T21:14:00.189Z,14.10
2022-08-16T21:16:38.666Z,14.20
2022-08-16T21:19:16.193Z,14.20
2022-08-16T21:21:53.354Z,14.30
2022-08-16T21:24:30.721Z,14.40
2022-08-16T21:27:08.267Z,14.50
2022-08-16T21:29:47.479Z,14.70
2022-08-16T21:32:35.601Z,14.90
2022-08-16T21:35:17.120Z,15.00
2022-08-16T21:38:05.785Z,15.20
2022-08-16T21:40:56.342Z,15.40
2022-08-16T21:43:34.977Z,15.50
2022-08-16T21:46:12.321Z,15.60
2022-08-16T21:48:49.532Z,15.70
2022-08-16T21:51:27.697Z,15.70
2022-08-16T21:54:03.747Z,15.90
2022-08-16T21:56:40.557Z,15.90
2022-08-16T21:59:17.383Z,16.00
2022-08-16T22:01:55.120Z,16.00
2022-08-16T22:04:38.020Z,16.00
2022-08-16T22:07:19.786Z,16.00
2022-08-16T22:09:56.233Z,16.00
2022-08-16T22:12:34.491Z,16.00
2022-08-16T22:15:10.652Z,16.00
2022-08-16T22:17:48.691Z,16.10
2022-08-16T22:20:29.624Z,16.20
2022-08-16T22:23:21.540Z,16.20
2022-08-16T22:25:59.613Z,16.30
2022-08-16T22:28:38.240Z,16.40
2022-08-16T22:31:14.608Z,16.30
2022-08-16T22:33:50.516Z,16.40
2022-08-16T22:36:28.620Z,16.40
2022-08-16T22:39:10.904Z,16.40
2022-08-16T22:41:51.566Z,16.40
2022-08-16T22:44:28.738Z,16.30
2022-08-16T22:47:04.689Z,16.20
2022-08-16T22:49:41.564Z,16.20
2022-08-16T22:52:50.834Z,16.30
2022-08-16T22:55:18.387Z,16.40
2022-08-16T22:57:53.929Z,16.60
2022-08-16T23:00:37.673Z,16.70
2022-08-16T23:03:18.360Z,16.70
2022-08-16T23:06:00.019Z,16.90
2022-08-16T23:08:45.182Z,17.00
2022-08-16T23:11:28.753Z,17.30
2022-08-16T23:16:41.466Z,17.80
2022-08-16T23:19:20.175Z,17.80
2022-08-16T23:21:57.062Z,18.00
2022-08-16T23:24:37.089Z,18.10
2022-08-16T23:27:24.739Z,18.40
2022-08-16T23:30:01.760Z,18.40
2022-08-16T23:32:39.435Z,18.60
2022-08-16T23:35:17.403Z,18.80
2022-08-16T23:37:55.650Z,19.00
2022-08-16T23:40:32.797Z,19.00
2022-08-16T23:43:14.569Z,19.00
2022-08-16T23:45:53.800Z,18.90
2022-08-16T23:48:31.088Z,19.00
2022-08-16T23:51:27.783Z,19.10
2022-08-16T23:54:04.588Z,19.00
2022-08-16T23:56:41.531Z,19.10
2022-08-16T23:59:21.092Z,19.40
